sensor_id;sensor_type;location;lat;lon;timestamp;temperature;humidity
57030;DHT22;42920;45.306;20.448;2022-10-26T00:00:07;358.70;2329.60
57030;DHT22;42920;45.306;20.448;2022-10-26T00:02:33;358.60;2329.60
57030;DHT22;42920;45.306;20.448;2022-10-26T00:04:59;358.60;2329.60
57030;DHT22;42920;45.306;20.448;2022-10-26T00:07:27;358.60;2329.60
57030;DHT22;42920;45.306;20.448;2022-10-26T00:09:52;358.50;2329.60
57030;DHT22;42920;45.306;20.448;2022-10-26T00:12:18;358.50;2329.60
57030;DHT22;42920;45.306;20.448;2022-10-26T00:14:44;358.50;2329.60
57030;DHT22;42920;45.306;20.448;2022-10-26T00:17:10;358.60;2329.60
57030;DHT22;42920;45.306;20.448;2022-10-26T00:19:35;358.50;2329.60
57030;DHT22;42920;45.306;20.448;2022-10-26T00:22:02;358.60;2329.60
57030;DHT22;42920;45.306;20.448;2022-10-26T00:24:28;358.60;2329.60
57030;DHT22;42920;45.306;20.448;2022-10-26T00:26:54;358.60;2329.60
57030;DHT22;42920;45.306;20.448;2022-10-26T00:29:19;358.60;2329.60
57030;DHT22;42920;45.306;20.448;2022-10-26T00:31:45;358.50;2329.60
57030;DHT22;42920;45.306;20.448;2022-10-26T00:34:11;358.50;2329.60
57030;DHT22;42920;45.306;20.448;2022-10-26T00:36:37;358.40;2329.60
57030;DHT22;42920;45.306;20.448;2022-10-26T00:39:03;358.40;2329.60
57030;DHT22;42920;45.306;20.448;2022-10-26T00:41:31;358.50;2329.60
57030;DHT22;42920;45.306;20.448;2022-10-26T00:43:57;358.50;2329.60
57030;DHT22;42920;45.306;20.448;2022-10-26T00:46:27;358.40;2329.60
57030;DHT22;42920;45.306;20.448;2022-10-26T00:48:59;358.40;2329.60
57030;DHT22;42920;45.306;20.448;2022-10-26T00:53:53;358.40;2329.60
57030;DHT22;42920;45.306;20.448;2022-10-26T00:56:19;333.70;2329.60
57030;DHT22;42920;45.306;20.448;2022-10-26T00:58:45;333.60;2329.60
57030;DHT22;42920;45.306;20.448;2022-10-26T01:01:11;333.60;2329.60
57030;DHT22;42920;45.306;20.448;2022-10-26T01:03:38;333.60;2329.60
57030;DHT22;42920;45.306;20.448;2022-10-26T01:06:05;333.60;2329.60
57030;DHT22;42920;45.306;20.448;2022-10-26T01:08:31;333.50;2329.60
57030;DHT22;42920;45.306;20.448;2022-10-26T01:10:57;333.60;2329.60
57030;DHT22;42920;45.306;20.448;2022-10-26T01:13:29;333.50;2329.60
57030;DHT22;42920;45.306;20.448;2022-10-26T01:24:15;333.30;2329.60
57030;DHT22;42920;45.306;20.448;2022-10-26T01:32:29;333.20;2329.60
57030;DHT22;42920;45.306;20.448;2022-10-26T01:35:07;333.20;2329.60
57030;DHT22;42920;45.306;20.448;2022-10-26T01:37:38;333.20;2329.60
57030;DHT22;42920;45.306;20.448;2022-10-26T01:40:20;333.20;2329.60
57030;DHT22;42920;45.306;20.448;2022-10-26T01:42:50;333.10;2329.60
57030;DHT22;42920;45.306;20.448;2022-10-26T01:45:18;333.10;2329.60
57030;DHT22;42920;45.306;20.448;2022-10-26T01:47:46;333.20;2329.60
57030;DHT22;42920;45.306;20.448;2022-10-26T01:50:12;333.20;2329.60
57030;DHT22;42920;45.306;20.448;2022-10-26T01:52:39;333.20;2329.60
57030;DHT22;42920;45.306;20.448;2022-10-26T01:58:21;333.30;2329.60
57030;DHT22;42920;45.306;20.448;2022-10-26T02:04:06;333.20;2329.60
57030;DHT22;42920;45.306;20.448;2022-10-26T02:09:25;333.10;2329.60
57030;DHT22;42920;45.306;20.448;2022-10-26T02:11:53;333.10;2329.60
57030;DHT22;42920;45.306;20.448;2022-10-26T02:14:26;333.10;2329.60
57030;DHT22;42920;45.306;20.448;2022-10-26T02:16:57;333.00;2329.60
57030;DHT22;42920;45.306;20.448;2022-10-26T02:19:53;333.00;2329.60
57030;DHT22;42920;45.306;20.448;2022-10-26T02:22:42;333.10;2329.60
57030;DHT22;42920;45.306;20.448;2022-10-26T02:25:25;333.10;2329.60
57030;DHT22;42920;45.306;20.448;2022-10-26T02:28:01;333.10;2329.60
57030;DHT22;42920;45.306;20.448;2022-10-26T02:30:27;333.10;2329.60
57030;DHT22;42920;45.306;20.448;2022-10-26T02:32:55;333.10;2329.60
57030;DHT22;42920;45.306;20.448;2022-10-26T02:35:30;333.10;2329.60
57030;DHT22;42920;45.306;20.448;2022-10-26T02:38:00;333.10;2329.60
57030;DHT22;42920;45.306;20.448;2022-10-26T02:40:27;333.10;2329.60
57030;DHT22;42920;45.306;20.448;2022-10-26T02:42:55;333.10;2329.60
57030;DHT22;42920;45.306;20.448;2022-10-26T02:45:26;333.10;2329.60
57030;DHT22;42920;45.306;20.448;2022-10-26T02:47:53;333.10;2329.60
57030;DHT22;42920;45.306;20.448;2022-10-26T02:50:25;333.10;2329.60
57030;DHT22;42920;45.306;20.448;2022-10-26T02:55:30;333.10;2329.60
57030;DHT22;42920;45.306;20.448;2022-10-26T02:58:05;333.10;2329.60
57030;DHT22;42920;45.306;20.448;2022-10-26T03:00:33;333.00;2329.60
57030;DHT22;42920;45.306;20.448;2022-10-26T03:02:59;332.90;2329.60
57030;DHT22;42920;45.306;20.448;2022-10-26T03:05:31;333.00;2329.60
57030;DHT22;42920;45.306;20.448;2022-10-26T03:07:57;332.90;2329.60
57030;DHT22;42920;45.306;20.448;2022-10-26T03:10:24;332.90;2329.60
57030;DHT22;42920;45.306;20.448;2022-10-26T03:12:50;332.90;2329.60
57030;DHT22;42920;45.306;20.448;2022-10-26T03:15:16;332.90;2329.60
57030;DHT22;42920;45.306;20.448;2022-10-26T03:17:42;333.10;2329.60
57030;DHT22;42920;45.306;20.448;2022-10-26T03:20:09;333.10;2329.60
57030;DHT22;42920;45.306;20.448;2022-10-26T03:22:35;333.10;2329.60
57030;DHT22;42920;45.306;20.448;2022-10-26T03:25:01;333.10;2329.60
57030;DHT22;42920;45.306;20.448;2022-10-26T03:27:27;333.00;2329.60
57030;DHT22;42920;45.306;20.448;2022-10-26T03:29:53;333.10;2329.60
57030;DHT22;42920;45.306;20.448;2022-10-26T03:32:19;333.10;2329.60
57030;DHT22;42920;45.306;20.448;2022-10-26T03:34:44;333.10;2329.60
57030;DHT22;42920;45.306;20.448;2022-10-26T03:37:10;333.00;2329.60
57030;DHT22;42920;45.306;20.448;2022-10-26T03:39:36;333.00;2329.60
57030;DHT22;42920;45.306;20.448;2022-10-26T03:42:02;332.90;2329.60
57030;DHT22;42920;45.306;20.448;2022-10-26T03:44:27;332.90;2329.60
57030;DHT22;42920;45.306;20.448;2022-10-26T03:46:53;332.90;2329.60
57030;DHT22;42920;45.306;20.448;2022-10-26T03:49:19;332.90;2329.60
57030;DHT22;42920;45.306;20.448;2022-10-26T03:51:44;332.90;2329.60
57030;DHT22;42920;45.306;20.448;2022-10-26T03:54:10;332.80;2329.60
57030;DHT22;42920;45.306;20.448;2022-10-26T03:56:36;332.80;2329.60
57030;DHT22;42920;45.306;20.448;2022-10-26T03:59:02;308.10;2304.00
57030;DHT22;42920;45.306;20.448;2022-10-26T04:01:28;332.90;2329.60
57030;DHT22;42920;45.306;20.448;2022-10-26T04:03:53;308.10;2304.00
57030;DHT22;42920;45.306;20.448;2022-10-26T04:06:19;308.00;2304.00
57030;DHT22;42920;45.306;20.448;2022-10-26T04:08:45;308.10;2304.00
57030;DHT22;42920;45.306;20.448;2022-10-26T04:11:10;308.10;2304.00
57030;DHT22;42920;45.306;20.448;2022-10-26T04:13:36;308.00;2304.00
57030;DHT22;42920;45.306;20.448;2022-10-26T04:16:02;307.90;2304.00
57030;DHT22;42920;45.306;20.448;2022-10-26T04:18:27;308.00;2304.00
57030;DHT22;42920;45.306;20.448;2022-10-26T04:20:53;308.00;2304.00
57030;DHT22;42920;45.306;20.448;2022-10-26T04:23:19;307.90;2304.00
57030;DHT22;42920;45.306;20.448;2022-10-26T04:25:45;308.00;2304.00
57030;DHT22;42920;45.306;20.448;2022-10-26T04:28:12;308.10;2304.00
57030;DHT22;42920;45.306;20.448;2022-10-26T04:30:38;332.90;2329.60
57030;DHT22;42920;45.306;20.448;2022-10-26T04:33:05;308.00;2304.00
57030;DHT22;42920;45.306;20.448;2022-10-26T04:35:31;307.80;2304.00
57030;DHT22;42920;45.306;20.448;2022-10-26T04:38:02;307.70;2304.00
57030;DHT22;42920;45.306;20.448;2022-10-26T04:40:29;307.80;2304.00
57030;DHT22;42920;45.306;20.448;2022-10-26T04:42:55;307.90;2304.00
57030;DHT22;42920;45.306;20.448;2022-10-26T04:45:21;308.00;2304.00
57030;DHT22;42920;45.306;20.448;2022-10-26T04:47:47;308.00;2304.00
57030;DHT22;42920;45.306;20.448;2022-10-26T04:50:22;307.80;2304.00
57030;DHT22;42920;45.306;20.448;2022-10-26T04:52:49;307.90;2304.00
57030;DHT22;42920;45.306;20.448;2022-10-26T04:55:16;307.80;2304.00
57030;DHT22;42920;45.306;20.448;2022-10-26T04:57:43;307.80;2304.00
57030;DHT22;42920;45.306;20.448;2022-10-26T05:00:10;307.90;2304.00
57030;DHT22;42920;45.306;20.448;2022-10-26T05:02:35;308.00;2304.00
57030;DHT22;42920;45.306;20.448;2022-10-26T05:05:01;307.80;2304.00
57030;DHT22;42920;45.306;20.448;2022-10-26T05:07:27;307.60;2304.00
57030;DHT22;42920;45.306;20.448;2022-10-26T05:09:53;307.40;2304.00
57030;DHT22;42920;45.306;20.448;2022-10-26T05:12:18;307.40;2304.00
57030;DHT22;42920;45.306;20.448;2022-10-26T05:14:44;307.30;2304.00
57030;DHT22;42920;45.306;20.448;2022-10-26T05:17:10;282.50;2278.40
57030;DHT22;42920;45.306;20.448;2022-10-26T05:19:36;282.40;2278.40
57030;DHT22;42920;45.306;20.448;2022-10-26T05:22:02;282.40;2278.40
57030;DHT22;42920;45.306;20.448;2022-10-26T05:24:28;282.40;2278.40
57030;DHT22;42920;45.306;20.448;2022-10-26T05:26:54;282.30;2278.40
57030;DHT22;42920;45.306;20.448;2022-10-26T05:29:20;282.30;2278.40
57030;DHT22;42920;45.306;20.448;2022-10-26T05:31:45;282.40;2278.40
57030;DHT22;42920;45.306;20.448;2022-10-26T05:34:11;282.50;2278.40
57030;DHT22;42920;45.306;20.448;2022-10-26T05:36:37;307.20;2304.00
57030;DHT22;42920;45.306;20.448;2022-10-26T05:39:03;282.50;2278.40
57030;DHT22;42920;45.306;20.448;2022-10-26T05:41:28;282.40;2278.40
57030;DHT22;42920;45.306;20.448;2022-10-26T05:43:54;282.20;2278.40
57030;DHT22;42920;45.306;20.448;2022-10-26T05:46:20;282.40;2278.40
57030;DHT22;42920;45.306;20.448;2022-10-26T05:48:45;282.30;2278.40
57030;DHT22;42920;45.306;20.448;2022-10-26T05:51:11;282.40;2278.40
57030;DHT22;42920;45.306;20.448;2022-10-26T05:53:37;282.40;2278.40
57030;DHT22;42920;45.306;20.448;2022-10-26T05:56:36;282.40;2278.40
57030;DHT22;42920;45.306;20.448;2022-10-26T05:59:00;282.30;2278.40
57030;DHT22;42920;45.306;20.448;2022-10-26T06:04:28;282.20;2278.40
57030;DHT22;42920;45.306;20.448;2022-10-26T06:06:55;282.10;2278.40
57030;DHT22;42920;45.306;20.448;2022-10-26T06:09:22;282.30;2278.40
57030;DHT22;42920;45.306;20.448;2022-10-26T06:11:48;282.50;2278.40
57030;DHT22;42920;45.306;20.448;2022-10-26T06:14:14;307.20;2304.00
57030;DHT22;42920;45.306;20.448;2022-10-26T06:19:21;307.40;2304.00
57030;DHT22;42920;45.306;20.448;2022-10-26T06:30:04;307.60;2304.00
57030;DHT22;42920;45.306;20.448;2022-10-26T06:32:42;307.70;2304.00
57030;DHT22;42920;45.306;20.448;2022-10-26T06:35:18;307.70;2304.00
57030;DHT22;42920;45.306;20.448;2022-10-26T06:37:45;307.80;2304.00
57030;DHT22;42920;45.306;20.448;2022-10-26T06:40:15;307.80;2304.00
57030;DHT22;42920;45.306;20.448;2022-10-26T06:42:42;307.80;2304.00
57030;DHT22;42920;45.306;20.448;2022-10-26T06:45:13;307.80;2304.00
57030;DHT22;42920;45.306;20.448;2022-10-26T06:47:59;307.80;1996.80
57030;DHT22;42920;45.306;20.448;2022-10-26T06:50:36;307.80;1996.80
57030;DHT22;42920;45.306;20.448;2022-10-26T06:53:14;307.90;2304.00
57030;DHT22;42920;45.306;20.448;2022-10-26T06:55:43;308.00;2304.00
57030;DHT22;42920;45.306;20.448;2022-10-26T06:58:14;308.00;2304.00
57030;DHT22;42920;45.306;20.448;2022-10-26T07:00:43;308.00;2304.00
57030;DHT22;42920;45.306;20.448;2022-10-26T07:03:11;332.80;2048.00
57030;DHT22;42920;45.306;20.448;2022-10-26T07:05:36;332.80;2329.60
57030;DHT22;42920;45.306;20.448;2022-10-26T07:08:03;308.10;2304.00
57030;DHT22;42920;45.306;20.448;2022-10-26T07:10:30;332.90;2329.60
57030;DHT22;42920;45.306;20.448;2022-10-26T07:12:56;333.00;1971.20
57030;DHT22;42920;45.306;20.448;2022-10-26T07:15:22;333.00;2329.60
57030;DHT22;42920;45.306;20.448;2022-10-26T07:17:48;333.10;2329.60
57030;DHT22;42920;45.306;20.448;2022-10-26T07:20:16;333.20;2329.60
57030;DHT22;42920;45.306;20.448;2022-10-26T07:22:42;333.20;2329.60
57030;DHT22;42920;45.306;20.448;2022-10-26T07:25:08;333.30;2329.60
57030;DHT22;42920;45.306;20.448;2022-10-26T07:27:34;333.50;2329.60
57030;DHT22;42920;45.306;20.448;2022-10-26T07:30:00;333.60;2329.60
57030;DHT22;42920;45.306;20.448;2022-10-26T07:32:26;333.70;2329.60
57030;DHT22;42920;45.306;20.448;2022-10-26T07:34:52;358.50;2329.60
57030;DHT22;42920;45.306;20.448;2022-10-26T07:37:17;358.50;2329.60
57030;DHT22;42920;45.306;20.448;2022-10-26T07:39:43;358.60;2329.60
57030;DHT22;42920;45.306;20.448;2022-10-26T07:42:09;358.60;2329.60
57030;DHT22;42920;45.306;20.448;2022-10-26T07:44:34;358.70;2329.60
57030;DHT22;42920;45.306;20.448;2022-10-26T07:47:00;358.70;2329.60
57030;DHT22;42920;45.306;20.448;2022-10-26T07:49:26;358.80;2329.60
57030;DHT22;42920;45.306;20.448;2022-10-26T07:51:52;358.80;2022.40
57030;DHT22;42920;45.306;20.448;2022-10-26T07:54:17;358.80;2329.60
57030;DHT22;42920;45.306;20.448;2022-10-26T07:56:43;358.80;2329.60
57030;DHT22;42920;45.306;20.448;2022-10-26T07:59:11;358.80;1971.20
57030;DHT22;42920;45.306;20.448;2022-10-26T08:26:37;358.80;2329.60
57030;DHT22;42920;45.306;20.448;2022-10-26T08:29:03;384.30;2329.60
57030;DHT22;42920;45.306;20.448;2022-10-26T08:31:29;384.20;2329.60
57030;DHT22;42920;45.306;20.448;2022-10-26T08:33:54;384.30;2329.60
57030;DHT22;42920;45.306;20.448;2022-10-26T08:36:24;384.30;2329.60
57030;DHT22;42920;45.306;20.448;2022-10-26T08:38:50;384.30;2329.60
57030;DHT22;42920;45.306;20.448;2022-10-26T08:41:37;384.40;2329.60
57030;DHT22;42920;45.306;20.448;2022-10-26T08:47:15;384.60;2329.60
57030;DHT22;42920;45.306;20.448;2022-10-26T08:50:40;384.60;2329.60
57030;DHT22;42920;45.306;20.448;2022-10-26T08:55:48;384.70;2329.60
57030;DHT22;42920;45.306;20.448;2022-10-26T08:58:17;384.90;2329.60
57030;DHT22;42920;45.306;20.448;2022-10-26T09:00:47;384.70;2329.60
57030;DHT22;42920;45.306;20.448;2022-10-26T09:03:15;384.70;2329.60
57030;DHT22;42920;45.306;20.448;2022-10-26T09:11:11;409.70;2355.20
57030;DHT22;42920;45.306;20.448;2022-10-26T09:13:54;409.80;2355.20
57030;DHT22;42920;45.306;20.448;2022-10-26T09:16:38;409.90;2355.20
57030;DHT22;42920;45.306;20.448;2022-10-26T09:19:34;410.00;2355.20
57030;DHT22;42920;45.306;20.448;2022-10-26T09:22:26;410.20;2355.20
57030;DHT22;42920;45.306;20.448;2022-10-26T09:24:59;410.20;2355.20
57030;DHT22;42920;45.306;20.448;2022-10-26T09:27:33;435.30;2355.20
57030;DHT22;42920;45.306;20.448;2022-10-26T09:30:14;435.50;2355.20
57030;DHT22;42920;45.306;20.448;2022-10-26T09:32:44;435.60;2355.20
57030;DHT22;42920;45.306;20.448;2022-10-26T09:35:26;435.70;2355.20
57030;DHT22;42920;45.306;20.448;2022-10-26T09:43:32;461.00;2380.80
57030;DHT22;42920;45.306;20.448;2022-10-26T09:46:00;461.30;2380.80
57030;DHT22;42920;45.306;20.448;2022-10-26T09:48:41;461.60;2380.80
57030;DHT22;42920;45.306;20.448;2022-10-26T09:51:08;486.50;2380.80
57030;DHT22;42920;45.306;20.448;2022-10-26T09:53:35;486.60;2380.80
57030;DHT22;42920;45.306;20.448;2022-10-26T09:56:12;486.80;2380.80
57030;DHT22;42920;45.306;20.448;2022-10-26T09:58:54;486.90;2380.80
57030;DHT22;42920;45.306;20.448;2022-10-26T10:01:28;487.20;2380.80
57030;DHT22;42920;45.306;20.448;2022-10-26T10:06:44;487.00;2380.80
57030;DHT22;42920;45.306;20.448;2022-10-26T10:09:21;487.00;2380.80
57030;DHT22;42920;45.306;20.448;2022-10-26T10:11:58;486.80;2380.80
57030;DHT22;42920;45.306;20.448;2022-10-26T10:19:30;486.60;2380.80
57030;DHT22;42920;45.306;20.448;2022-10-26T10:27:18;486.40;2380.80
57030;DHT22;42920;45.306;20.448;2022-10-26T10:32:18;486.70;2380.80
57030;DHT22;42920;45.306;20.448;2022-10-26T10:34:49;486.60;2380.80
57030;DHT22;42920;45.306;20.448;2022-10-26T10:37:35;486.70;2380.80
57030;DHT22;42920;45.306;20.448;2022-10-26T10:40:05;486.80;2380.80
57030;DHT22;42920;45.306;20.448;2022-10-26T10:42:34;486.80;2380.80
57030;DHT22;42920;45.306;20.448;2022-10-26T10:45:02;486.80;2380.80
57030;DHT22;42920;45.306;20.448;2022-10-26T10:47:32;486.80;2380.80
57030;DHT22;42920;45.306;20.448;2022-10-26T10:50:10;487.10;2380.80
57030;DHT22;42920;45.306;20.448;2022-10-26T10:52:40;487.30;2380.80
57030;DHT22;42920;45.306;20.448;2022-10-26T11:00:23;537.90;2406.40
57030;DHT22;42920;45.306;20.448;2022-10-26T11:08:10;538.20;2406.40
57030;DHT22;42920;45.306;20.448;2022-10-26T11:10:59;538.30;2406.40
57030;DHT22;42920;45.306;20.448;2022-10-26T11:16:12;538.30;2406.40
57030;DHT22;42920;45.306;20.448;2022-10-26T11:18:47;538.30;2406.40
57030;DHT22;42920;45.306;20.448;2022-10-26T11:21:20;563.20;2432.00
57030;DHT22;42920;45.306;20.448;2022-10-26T11:24:01;563.40;2432.00
57030;DHT22;42920;45.306;20.448;2022-10-26T11:26:44;563.40;2432.00
57030;DHT22;42920;45.306;20.448;2022-10-26T11:29:26;563.50;2432.00
57030;DHT22;42920;45.306;20.448;2022-10-26T11:31:57;563.60;2432.00
57030;DHT22;42920;45.306;20.448;2022-10-26T11:34:38;563.60;2432.00
57030;DHT22;42920;45.306;20.448;2022-10-26T11:37:16;563.70;2432.00
57030;DHT22;42920;45.306;20.448;2022-10-26T11:40:00;564.00;2432.00
57030;DHT22;42920;45.306;20.448;2022-10-26T11:43:27;588.80;2150.40
57030;DHT22;42920;45.306;20.448;2022-10-26T11:45:30;588.80;2201.60
57030;DHT22;42920;45.306;20.448;2022-10-26T11:48:08;564.10;2278.40
57030;DHT22;42920;45.306;20.448;2022-10-26T11:50:46;588.80;2201.60
57030;DHT22;42920;45.306;20.448;2022-10-26T11:53:18;564.10;2329.60
57030;DHT22;42920;45.306;20.448;2022-10-26T11:55:48;564.00;2176.00
57030;DHT22;42920;45.306;20.448;2022-10-26T11:58:16;564.10;2252.80
57030;DHT22;42920;45.306;20.448;2022-10-26T12:00:50;564.00;2304.00
57030;DHT22;42920;45.306;20.448;2022-10-26T12:03:19;563.80;2278.40
57030;DHT22;42920;45.306;20.448;2022-10-26T12:05:48;563.80;2252.80
57030;DHT22;42920;45.306;20.448;2022-10-26T12:08:25;563.60;2227.20
57030;DHT22;42920;45.306;20.448;2022-10-26T12:13:51;563.50;2355.20
57030;DHT22;42920;45.306;20.448;2022-10-26T12:19:23;563.20;2278.40
57030;DHT22;42920;45.306;20.448;2022-10-26T12:21:51;538.40;2227.20
57030;DHT22;42920;45.306;20.448;2022-10-26T12:24:24;538.40;2380.80
57030;DHT22;42920;45.306;20.448;2022-10-26T12:29:38;538.20;2406.40
57030;DHT22;42920;45.306;20.448;2022-10-26T12:37:27;538.20;2406.40
57030;DHT22;42920;45.306;20.448;2022-10-26T12:39:53;538.20;2406.40
57030;DHT22;42920;45.306;20.448;2022-10-26T12:42:28;538.10;2406.40
57030;DHT22;42920;45.306;20.448;2022-10-26T12:52:55;538.10;2406.40
57030;DHT22;42920;45.306;20.448;2022-10-26T12:58:21;538.00;2406.40
57030;DHT22;42920;45.306;20.448;2022-10-26T13:03:29;538.20;2406.40
57030;DHT22;42920;45.306;20.448;2022-10-26T13:08:46;538.30;2406.40
57030;DHT22;42920;45.306;20.448;2022-10-26T13:11:28;538.30;2406.40
57030;DHT22;42920;45.306;20.448;2022-10-26T13:14:02;538.30;2406.40
57030;DHT22;42920;45.306;20.448;2022-10-26T13:16:29;538.20;2406.40
57030;DHT22;42920;45.306;20.448;2022-10-26T13:18:55;538.10;2406.40
57030;DHT22;42920;45.306;20.448;2022-10-26T13:21:23;538.10;2406.40
57030;DHT22;42920;45.306;20.448;2022-10-26T13:26:20;538.00;2406.40
57030;DHT22;42920;45.306;20.448;2022-10-26T13:28:57;538.10;2406.40
57030;DHT22;42920;45.306;20.448;2022-10-26T13:34:11;538.00;2406.40
57030;DHT22;42920;45.306;20.448;2022-10-26T13:36:52;538.00;2406.40
57030;DHT22;42920;45.306;20.448;2022-10-26T13:39:41;538.00;2406.40
57030;DHT22;42920;45.306;20.448;2022-10-26T13:42:12;538.00;2406.40
57030;DHT22;42920;45.306;20.448;2022-10-26T13:48:48;537.90;2406.40
57030;DHT22;42920;45.306;20.448;2022-10-26T13:50:58;537.90;2406.40
57030;DHT22;42920;45.306;20.448;2022-10-26T13:53:40;537.80;2406.40
57030;DHT22;42920;45.306;20.448;2022-10-26T13:59:03;537.70;2406.40
57030;DHT22;42920;45.306;20.448;2022-10-26T14:01:30;537.70;2406.40
57030;DHT22;42920;45.306;20.448;2022-10-26T14:03:56;537.80;2406.40
57030;DHT22;42920;45.306;20.448;2022-10-26T14:06:43;537.80;2406.40
57030;DHT22;42920;45.306;20.448;2022-10-26T14:09:12;537.80;2406.40
57030;DHT22;42920;45.306;20.448;2022-10-26T14:12:00;537.70;2406.40
57030;DHT22;42920;45.306;20.448;2022-10-26T14:14:33;537.70;2406.40
57030;DHT22;42920;45.306;20.448;2022-10-26T14:16:59;537.60;2406.40
57030;DHT22;42920;45.306;20.448;2022-10-26T14:19:29;537.60;2406.40
57030;DHT22;42920;45.306;20.448;2022-10-26T14:21:55;512.90;2380.80
57030;DHT22;42920;45.306;20.448;2022-10-26T14:24:33;512.90;2380.80
57030;DHT22;42920;45.306;20.448;2022-10-26T14:26:59;512.90;2380.80
57030;DHT22;42920;45.306;20.448;2022-10-26T14:29:29;512.70;2380.80
57030;DHT22;42920;45.306;20.448;2022-10-26T14:31:56;512.80;2380.80
57030;DHT22;42920;45.306;20.448;2022-10-26T14:34:22;512.70;2380.80
57030;DHT22;42920;45.306;20.448;2022-10-26T14:36:57;512.60;2380.80
57030;DHT22;42920;45.306;20.448;2022-10-26T14:42:12;512.40;2380.80
57030;DHT22;42920;45.306;20.448;2022-10-26T14:44:40;512.20;2380.80
57030;DHT22;42920;45.306;20.448;2022-10-26T14:47:21;512.20;2380.80
57030;DHT22;42920;45.306;20.448;2022-10-26T14:49:48;512.10;2380.80
57030;DHT22;42920;45.306;20.448;2022-10-26T14:55:16;487.20;2380.80
57030;DHT22;42920;45.306;20.448;2022-10-26T14:57:44;487.10;2380.80
57030;DHT22;42920;45.306;20.448;2022-10-26T15:00:16;487.00;2380.80
57030;DHT22;42920;45.306;20.448;2022-10-26T15:02:47;486.80;2380.80
57030;DHT22;42920;45.306;20.448;2022-10-26T15:07:49;486.80;2380.80
57030;DHT22;42920;45.306;20.448;2022-10-26T15:15:35;486.70;2380.80
57030;DHT22;42920;45.306;20.448;2022-10-26T15:18:01;486.60;2380.80
57030;DHT22;42920;45.306;20.448;2022-10-26T15:20:29;486.60;2380.80
57030;DHT22;42920;45.306;20.448;2022-10-26T15:23:00;486.50;2380.80
57030;DHT22;42920;45.306;20.448;2022-10-26T15:25:31;486.50;2380.80
57030;DHT22;42920;45.306;20.448;2022-10-26T15:28:31;486.40;2380.80
57030;DHT22;42920;45.306;20.448;2022-10-26T15:33:38;461.60;2380.80
57030;DHT22;42920;45.306;20.448;2022-10-26T15:38:33;461.40;2380.80
57030;DHT22;42920;45.306;20.448;2022-10-26T15:40:59;461.30;2380.80
57030;DHT22;42920;45.306;20.448;2022-10-26T15:43:24;461.20;2380.80
57030;DHT22;42920;45.306;20.448;2022-10-26T15:45:50;461.20;2380.80
57030;DHT22;42920;45.306;20.448;2022-10-26T15:48:25;461.20;2380.80
57030;DHT22;42920;45.306;20.448;2022-10-26T15:50:54;461.10;2380.80
57030;DHT22;42920;45.306;20.448;2022-10-26T15:53:22;461.10;2380.80
57030;DHT22;42920;45.306;20.448;2022-10-26T15:55:50;461.00;2380.80
57030;DHT22;42920;45.306;20.448;2022-10-26T15:58:17;460.90;2380.80
57030;DHT22;42920;45.306;20.448;2022-10-26T16:00:43;460.80;2380.80
57030;DHT22;42920;45.306;20.448;2022-10-26T16:03:29;436.10;2355.20
57030;DHT22;42920;45.306;20.448;2022-10-26T16:05:57;435.90;2355.20
57030;DHT22;42920;45.306;20.448;2022-10-26T16:08:28;435.90;2355.20
57030;DHT22;42920;45.306;20.448;2022-10-26T16:10:54;435.80;2355.20
57030;DHT22;42920;45.306;20.448;2022-10-26T16:13:20;435.80;2355.20
57030;DHT22;42920;45.306;20.448;2022-10-26T16:15:46;435.80;2355.20
57030;DHT22;42920;45.306;20.448;2022-10-26T16:18:12;435.70;2355.20
57030;DHT22;42920;45.306;20.448;2022-10-26T16:20:38;435.70;2355.20
57030;DHT22;42920;45.306;20.448;2022-10-26T16:23:04;435.60;2355.20
57030;DHT22;42920;45.306;20.448;2022-10-26T16:25:39;435.50;2355.20
57030;DHT22;42920;45.306;20.448;2022-10-26T16:28:05;435.50;2355.20
57030;DHT22;42920;45.306;20.448;2022-10-26T16:30:30;435.50;2355.20
57030;DHT22;42920;45.306;20.448;2022-10-26T16:32:56;435.40;2355.20
57030;DHT22;42920;45.306;20.448;2022-10-26T16:35:22;435.30;2355.20
57030;DHT22;42920;45.306;20.448;2022-10-26T16:37:48;435.30;2355.20
57030;DHT22;42920;45.306;20.448;2022-10-26T16:40:14;435.20;2355.20
57030;DHT22;42920;45.306;20.448;2022-10-26T16:42:40;410.50;2355.20
57030;DHT22;42920;45.306;20.448;2022-10-26T16:45:10;410.40;2355.20
57030;DHT22;42920;45.306;20.448;2022-10-26T16:47:36;410.30;2355.20
57030;DHT22;42920;45.306;20.448;2022-10-26T16:50:05;410.30;2355.20
57030;DHT22;42920;45.306;20.448;2022-10-26T16:52:33;410.30;2355.20
57030;DHT22;42920;45.306;20.448;2022-10-26T16:54:59;410.30;2355.20
57030;DHT22;42920;45.306;20.448;2022-10-26T16:57:24;410.30;2355.20
57030;DHT22;42920;45.306;20.448;2022-10-26T16:59:50;410.30;2355.20
57030;DHT22;42920;45.306;20.448;2022-10-26T17:02:16;410.20;2355.20
57030;DHT22;42920;45.306;20.448;2022-10-26T17:04:42;410.20;2355.20
57030;DHT22;42920;45.306;20.448;2022-10-26T17:07:08;410.00;2355.20
57030;DHT22;42920;45.306;20.448;2022-10-26T17:09:34;410.00;2355.20
57030;DHT22;42920;45.306;20.448;2022-10-26T17:12:00;409.90;2355.20
57030;DHT22;42920;45.306;20.448;2022-10-26T17:14:25;409.80;2355.20
57030;DHT22;42920;45.306;20.448;2022-10-26T17:16:51;409.70;2355.20
57030;DHT22;42920;45.306;20.448;2022-10-26T17:19:17;409.60;2355.20
57030;DHT22;42920;45.306;20.448;2022-10-26T17:21:43;409.60;2355.20
57030;DHT22;42920;45.306;20.448;2022-10-26T17:24:09;384.90;2329.60
57030;DHT22;42920;45.306;20.448;2022-10-26T17:26:36;384.90;2329.60
57030;DHT22;42920;45.306;20.448;2022-10-26T17:29:02;409.60;2355.20
57030;DHT22;42920;45.306;20.448;2022-10-26T17:31:28;409.60;2355.20
57030;DHT22;42920;45.306;20.448;2022-10-26T17:33:55;409.60;2355.20
57030;DHT22;42920;45.306;20.448;2022-10-26T17:36:23;409.60;2355.20
57030;DHT22;42920;45.306;20.448;2022-10-26T17:38:52;409.70;2355.20
57030;DHT22;42920;45.306;20.448;2022-10-26T17:41:19;409.60;2355.20
57030;DHT22;42920;45.306;20.448;2022-10-26T17:43:47;409.70;2355.20